• Join FlightAware (Why Join?)
  • Login
  • US Flag 
06:52PM EDT


 

Airport Tracker/Info


-or-


 

Live Flight TrackerFlight Track Log ✈ AUB1638 ✈ 11-Apr-2013 ✈ EDDM / MUC - EPPO / POZ

Flight Track Log - Related Links

Times and Time Zones

All times are in EDT time to prevent confusion due to time zone crossing. See the AUB1638 flight status page for this flight to view local times or setup timezone preferences in your user account.

Time Position Orientation Groundspeed Altitude Reporting Facility
EDT Latitude Longitude Course Direction KTS MPH feet Rate Location/Type
08:59AM 48.5401 11.9938 36° Northeast  Level Estimated
09:00AM 48.6022 12.0633 37° Northeast  Level Estimated
09:01AM 48.6642 12.1331 37° Northeast  Level Estimated
09:02AM 48.7261 12.2030 37° Northeast  Level Estimated
09:03AM 48.7881 12.2731 37° Northeast  Level Estimated
09:04AM 48.8499 12.3433 37° Northeast  Level Estimated
09:05AM 48.9118 12.4138 37° Northeast  Level Estimated
09:06AM 48.9735 12.4844 37° Northeast  Level Estimated
09:07AM 49.0353 12.5551 37° Northeast  Level Estimated
09:08AM 49.0970 12.6261 37° Northeast  Level Estimated
09:09AM 49.1586 12.6972 37° Northeast  Level Estimated
09:10AM 49.2202 12.7685 37° Northeast  Level Estimated
09:11AM 49.2818 12.8400 37° Northeast  Level Estimated
09:12AM 49.3433 12.9117 37° Northeast  Level Estimated
09:13AM 49.4048 12.9836 37° Northeast  Level Estimated
09:14AM 49.4662 13.0556 37° Northeast  Level Estimated
09:15AM 49.5276 13.1278 37° Northeast  Level Estimated
09:16AM 49.5890 13.2002 37° Northeast  Level Estimated
09:17AM 49.6503 13.2727 37° Northeast  Level Estimated
09:18AM 49.7115 13.3455 38° Northeast  Level Estimated
09:19AM 49.7727 13.4184 38° Northeast  Level Estimated
09:20AM 49.8339 13.4916 38° Northeast  Level Estimated
09:21AM 49.8950 13.5649 38° Northeast  Level Estimated
09:22AM 49.9561 13.6384 38° Northeast  Level Estimated
09:23AM 50.0171 13.7120 38° Northeast  Level Estimated
09:24AM 50.0780 13.7859 38° Northeast  Level Estimated
09:25AM 50.1390 13.8600 38° Northeast  Level Estimated
09:26AM 50.1999 13.9342 38° Northeast  Level Estimated
09:27AM 50.2607 14.0086 38° Northeast  Level Estimated
09:28AM 50.3215 14.0833 38° Northeast  Level Estimated
09:29AM 50.3822 14.1581 38° Northeast  Level Estimated
09:30AM 50.4429 14.2331 38° Northeast  Level Estimated
09:31AM 50.5036 14.3083 38° Northeast  Level Estimated
09:32AM 50.5641 14.3836 38° Northeast  Level Estimated
09:33AM 50.6247 14.4592 38° Northeast  Level Estimated
09:34AM 50.6852 14.5350 38° Northeast  Level Estimated
09:35AM 50.7456 14.6110 38° Northeast  Level Estimated
09:36AM 50.8060 14.6872 39° Northeast  Level Estimated
09:37AM 50.8664 14.7635 39° Northeast  Level Estimated
09:38AM 50.9267 14.8401 39° Northeast  Level Estimated
09:39AM 50.9869 14.9169 39° Northeast  Level Estimated
09:40AM 51.0471 14.9938 39° Northeast  Level Estimated
09:41AM 51.1073 15.0710 39° Northeast  Level Estimated
09:42AM 51.1674 15.1484 39° Northeast  Level Estimated
09:43AM 51.2274 15.2259 39° Northeast  Level Estimated
09:44AM 51.2874 15.3037 39° Northeast  Level Estimated
09:45AM 51.3473 15.3817 39° Northeast  Level Estimated
09:46AM 51.4072 15.4599 39° Northeast  Level Estimated
09:47AM 51.4670 15.5382 39° Northeast  Level Estimated
09:48AM 51.5268 15.6168 39° Northeast  Level Estimated
09:49AM 51.5866 15.6956 39° Northeast  Level Estimated
09:50AM 51.6462 15.7746 39° Northeast  Level Estimated
09:51AM 51.7059 15.8538 39° Northeast  Level Estimated
09:52AM 51.7654 15.9333 40° Northeast  Level Estimated
09:53AM 51.8250 16.0129 40° Northeast  Level Estimated
09:54AM 51.8844 16.0927 40° Northeast  Level Estimated
09:55AM 51.9438 16.1728 40° Northeast  Level Estimated
09:56AM 52.0032 16.2530 40° Northeast  Level Estimated
09:57AM 52.0625 16.3335 40° Northeast  Level Estimated
09:58AM 52.1217 16.4142 40° Northeast  Level Estimated
09:59AM 52.1809 16.4951 40° Northeast  Level Estimated
10:00AM 52.2401 16.5762 40° Northeast  Level Estimated
10:01AM 52.2991 16.6576 40° Northeast  Level Estimated
10:02AM 52.3582 16.7391 40° Northeast  Level Estimated
10:03AM 52.4171 16.8209 40° Northeast  Level Estimated
10:04AM 52.4210 16.8263 40° Northeast  Level Estimated
10:05AM 52.4210 16.8263 72° East  Level Estimated
10:06AM 52.4210 16.8263 72° East  Level Estimated
10:07AM 52.4210 16.8263 72° East  Level Estimated
10:08AM 52.4210 16.8263 72° East  Level Estimated
10:09AM 52.4210 16.8263 72° East  Level Estimated
10:10AM 52.4210 16.8263 72° East  Level Estimated
10:11AM 52.4210 16.8263 72° East  Level Estimated
10:12AM 52.4210 16.8263 72° East  Level Estimated
10:13AM 52.4210 16.8263 72° East  Level Estimated
10:14AM 52.4210 16.8263 72° East  Level Estimated
10:15AM 52.4210 16.8263 72° East  Level Estimated
10:16AM 52.4210 16.8263 72° East  Level Estimated
10:17AM 52.4210 16.8263 72° East  Level Estimated
10:18AM 52.4210 16.8263 72° East  Level Estimated
10:19AM 52.4210 16.8263 72° East  Level Estimated